Smith, Canada
Current Conditions -  °F | °C
As of 11:29 PM on Tuesday 27 Jan 2015 (Local Time) from CYZH Reporting Station
Light Snow Light Snow  
Wind Chill: 18°   Ceiling: 900
Heat Index: 18°   Visibility: 5mi
Dew Point: 16°   Wind: 2mph
Humidity: 93%   Direction: 110°ESE
Pressure: 29.91"   Gusts: NA
Location:  55.17°N, 114.03°W
Report Text: CYZH 280629Z AUTO 11002KT 5SM -SN OVC009 M08/M09 A2991 RMK SLP166
Loading
Personal Weather Stations






























Interactive Weather Map New forecast layout! Learn more

10-Day Weather Forecast

Advertisements
Track Severe Weather on mobile